Hovedside
METAR-TAF:

METAR-TAF

Lufthavner :

Stockholm-Skavsta, Sverige

Skavsta lufthavn

breddegrad: 58-47N, lengdegrad: 016-55E, høyde over havet: 43 m

Gjeldene værobservasjon

Denne rapporten ble laget for 11 minutter siden, klokken 08:20 UTC
Flau vind
Temperatur -15°C
Luftfuktighet 92%
Trykk 1014 hPa
Sikt: 0100 m
underkjølt tåke

METAR: ESKN 220820Z 00000KT 0100 R08/0350N R26/0375N FZFG VV002 M15/M16 Q1014 R08/910130

Tid: 09:31 (08:31 UTC)

Varsel

Denne rapporten ble laget for 3 timer og 1 minutter siden, klokken 05:30 UTC
Varsel gyldig fra 22. klokken 06 UTC til 23. klokken 06 UTC
Vind 1 kt fra skiftende retning
Sikt: 9000 m
tåkebanker
Sannsynlighet 40%
fra 22. klokken 06 UTC til 22. klokken 09 UTC
Sikt: 0200 m
i en høyde av 200 ft
underkjølt tåke

TAF: ESKN 220530Z 2206/2306 VRB01KT 9000 BCFG NSC PROB40 2206/2209 0200 FZFG VV002

Værobservasjoner og værvarsel for over 4000 flyplasser (METAR- og TAF-rapporter).

Tilgjengelige stasjoner er representert av de røde og gule prikkene på kartet.

Hold musepekeren over prikken for å se navnet på stasjonen.

Klikk så for å se værobservasjoner og -varsler.

For å forandre kartet kan du klikke på den grønne knappen med svart kryss for å zoome inn, på den grønne knappen med strek for å zoome ut, eller på de grønne pilene for å se tilstøtende kart.


METAR-TAF: